Time;durP1;ratioP1;P1;durP2;ratioP2;P2;SDS_P1;SDS_P2;PMS_P1;PMS_P2;Temp;Humidity;BMP_temperature;BMP_pressure;BME280_temperature;BME280_humidity;BME280_pressure;Samples;Min_cycle;Max_cycle;Signal;HPM_P1;HPM_P2
2022/02/09 00:00:36;;;;;;;6.30;5.70;;;;;;;3.47;63.50;94610.95;1528010;92;21197;-47
2022/02/09 00:03:11;;;;;;;8.80;7.97;;;;;;;3.50;63.79;94623.12;1548421;90;21182;-47
2022/02/09 00:05:47;;;;;;;8.65;7.15;;;;;;;3.53;64.22;94622.92;1567442;89;20983;-48
2022/02/09 00:08:11;;;;;;;7.72;5.55;;;;;;;3.53;64.59;94633.19;1548327;91;21006;-47
2022/02/09 00:10:40;;;;;;;6.97;5.80;;;;;;;3.50;65.74;94637.33;1528488;92;21643;-47
2022/02/09 00:13:35;;;;;;;7.87;6.37;;;;;;;3.41;66.24;94645.78;1512678;93;21135;-47
2022/02/09 00:16:00;;;;;;;10.90;7.15;;;;;;;3.33;66.71;94651.88;1532751;91;21988;-47
2022/02/09 00:19:25;;;;;;;211.03;86.75;;;;;;;3.30;66.24;94637.73;1547726;91;21173;-48
2022/02/09 00:21:17;;;;;;;69.15;31.10;;;;;;;3.31;66.45;94641.20;1489072;92;21057;-48
2022/02/09 00:26:51;;;;;;;40.80;30.70;;;;;;;3.34;66.22;94644.47;1528367;92;21102;-47
2022/02/09 00:42:00;;;;;;;8.85;6.80;;;;;;;2.97;66.96;94648.50;1546383;91;21608;-47
2022/02/09 00:44:37;;;;;;;;;;;;;;;;;;;;;
2022/02/09 01:39:17;;;;;;;14.13;8.53;;;;;;;3.02;66.77;94666.50;1524359;92;21066;-48
2022/02/09 01:55:44;;;;;;;25.17;12.68;;;;;;;2.99;66.62;94645.58;1527808;92;21574;-47
2022/02/09 01:58:11;;;;;;;40.12;20.12;;;;;;;2.99;66.48;94651.58;1527461;92;21151;-47
2022/02/09 02:00:37;;;;;;;25.25;13.43;;;;;;;2.92;66.33;94656.52;1524296;92;21035;-47
2022/02/09 02:03:03;;;;;;;18.23;11.20;;;;;;;2.85;66.50;94657.16;1512269;92;21139;-48
2022/02/09 02:05:30;;;;;;;19.82;10.65;;;;;;;2.82;66.67;94662.79;1530142;92;21108;-47
2022/02/09 02:08:00;;;;;;;24.25;13.75;;;;;;;2.84;66.82;94658.33;1526519;92;21133;-47
2022/02/09 02:13:35;;;;;;;24.95;13.78;;;;;;;2.81;66.89;94668.61;1527853;91;21186;-47
2022/02/09 02:18:23;;;;;;;19.52;12.58;;;;;;;2.82;66.90;94672.87;1507774;92;21034;-47
2022/02/09 02:21:16;;;;;;;30.50;15.80;;;;;;;2.82;66.97;94676.37;1528352;92;21004;-47
2022/02/09 02:24:12;;;;;;;14.00;10.30;;;;;;;2.86;66.92;94672.28;1525753;92;21319;-47
2022/02/09 02:34:45;;;;;;;13.45;10.40;;;;;;;3.08;66.31;94668.22;1525579;92;21115;-48
2022/02/09 02:37:02;;;;;;;28.70;15.90;;;;;;;3.14;66.21;94672.82;1512951;93;21582;-48
2022/02/09 02:39:44;;;;;;;40.60;23.30;;;;;;;3.22;65.89;94677.61;1529934;92;21071;-48
2022/02/09 02:45:48;;;;;;;16.57;9.85;;;;;;;3.26;65.58;94689.22;1512158;92;21145;-47
2022/02/09 02:58:54;;;;;;;18.02;12.40;;;;;;;3.22;66.07;94708.27;1527399;92;21156;-47
2022/02/09 03:10:10;;;;;;;13.53;8.60;;;;;;;3.25;66.35;94716.22;1516216;92;21102;-47
2022/02/09 03:14:31;;;;;;;12.78;11.38;;;;;;;3.40;65.79;94733.35;1514979;93;21134;-46
2022/02/09 03:17:01;;;;;;;14.25;11.25;;;;;;;3.39;65.71;94742.69;1518812;93;21133;-47
2022/02/09 03:51:43;;;;;;;27.25;13.62;;;;;;;3.70;64.82;94776.40;1512496;93;21060;-47
2022/02/09 03:54:10;;;;;;;35.23;18.42;;;;;;;3.61;64.89;94770.67;1528009;92;21288;-47
2022/02/09 03:56:53;;;;;;;70.57;28.75;;;;;;;3.60;65.11;94771.84;1520448;92;21096;-48
2022/02/09 03:58:59;;;;;;;28.42;13.03;;;;;;;3.65;65.21;94774.13;1528710;92;21496;-48
2022/02/09 04:01:30;;;;;;;37.58;18.15;;;;;;;3.65;65.17;94774.13;1525727;92;21193;-47
2022/02/09 04:03:55;;;;;;;45.52;20.77;;;;;;;3.57;65.41;94780.02;1526593;92;21089;-48
2022/02/09 04:06:22;;;;;;;42.13;21.20;;;;;;;3.52;65.75;94775.78;1511245;92;21102;-48
2022/02/09 04:08:57;;;;;;;59.93;29.98;;;;;;;3.45;65.79;94777.02;1527513;92;20975;-48
2022/02/09 04:11:29;;;;;;;45.92;20.43;;;;;;;3.43;66.31;94780.13;1527846;92;22361;-48
2022/02/09 04:14:08;;;;;;;25.50;15.03;;;;;;;3.56;66.26;94781.98;1488709;93;21133;-48
2022/02/09 04:16:38;;;;;;;36.28;18.67;;;;;;;3.61;65.91;94792.42;1508918;93;21225;-47
2022/02/09 04:38:10;;;;;;;22.22;15.18;;;;;;;3.59;66.81;94815.17;1510914;92;21139;-47
2022/02/09 04:41:02;;;;;;;32.75;22.70;;;;;;;3.53;67.16;94801.80;1508945;93;21200;-46
2022/02/09 04:50:58;;;;;;;37.73;25.97;;;;;;;3.66;67.99;94807.55;1525769;92;21127;-48
2022/02/09 04:54:11;;;;;;;28.60;19.62;;;;;;;3.77;67.84;94808.22;1511474;93;21193;-47
2022/02/09 04:56:00;;;;;;;61.77;37.30;;;;;;;3.86;67.55;94799.77;1512119;92;20994;-46
2022/02/09 05:01:10;;;;;;;56.75;34.40;;;;;;;3.89;66.98;94797.59;1527367;92;21548;-47
2022/02/09 05:27:21;;;;;;;21.62;13.45;;;;;;;3.52;66.85;94822.01;1527674;92;21047;-52
2022/02/09 05:29:43;;;;;;;15.83;10.88;;;;;;;3.49;67.06;94825.53;1527500;92;21138;-51
2022/02/09 05:32:09;;;;;;;55.33;33.45;;;;;;;3.48;67.18;94828.07;1527622;92;21849;-46
2022/02/09 05:34:36;;;;;;;31.02;18.85;;;;;;;3.45;67.46;94828.69;1529412;92;21140;-47
2022/02/09 05:37:04;;;;;;;34.30;18.48;;;;;;;3.48;67.55;94834.68;1528370;92;22099;-47
2022/02/09 05:39:31;;;;;;;39.70;20.77;;;;;;;3.41;67.69;94839.58;1522786;92;21042;-47
2022/02/09 05:41:58;;;;;;;57.73;29.18;;;;;;;3.42;67.88;94849.28;1511461;93;21072;-51
2022/02/09 05:44:24;;;;;;;63.83;30.80;;;;;;;3.43;67.96;94859.59;1512319;92;21898;-48
2022/02/09 05:47:46;;;;;;;64.32;29.98;;;;;;;3.46;68.08;94865.58;1529413;92;21485;-48
2022/02/09 05:59:48;;;;;;;39.67;23.02;;;;;;;3.45;68.12;94874.91;1527546;92;21141;-49
2022/02/09 06:02:16;;;;;;;38.83;24.25;;;;;;;3.47;68.01;94881.51;1527443;92;21101;-49
2022/02/09 06:04:43;;;;;;;66.17;40.55;;;;;;;3.50;68.00;94883.42;1529533;92;21126;-48
2022/02/09 06:07:11;;;;;;;41.58;26.40;;;;;;;3.52;67.98;94885.16;1526767;92;21505;-52
2022/02/09 06:09:38;;;;;;;45.60;28.55;;;;;;;3.58;67.67;94893.86;1529021;92;21152;-48
2022/02/09 06:12:21;;;;;;;53.50;28.32;;;;;;;3.66;67.41;94896.70;1512503;92;21579;-47
2022/02/09 06:20:13;;;;;;;45.80;26.85;;;;;;;3.59;67.13;94909.01;1526453;92;21181;-48
2022/02/09 06:22:39;;;;;;;50.52;26.57;;;;;;;3.54;67.15;94910.77;1528988;92;21174;-51
2022/02/09 06:25:08;;;;;;;71.15;36.40;;;;;;;3.50;67.25;94919.54;1533098;91;21176;-48
2022/02/09 06:27:35;;;;;;;67.05;39.88;;;;;;;3.56;67.37;94933.50;1511707;92;21049;-48
2022/02/09 06:30:02;;;;;;;75.42;46.50;;;;;;;3.67;67.33;94930.89;1537773;92;21204;-48
2022/02/09 06:32:29;;;;;;;63.90;42.80;;;;;;;3.77;67.18;94931.43;1553583;92;21080;-49
2022/02/09 06:34:57;;;;;;;62.70;43.08;;;;;;;3.95;66.91;94929.93;1521480;92;22000;-50
2022/02/09 06:37:38;;;;;;;59.25;39.78;;;;;;;4.11;66.49;94932.92;1512203;92;21168;-48
2022/02/09 06:39:58;;;;;;;50.70;35.52;;;;;;;4.19;65.95;94928.38;1530356;90;21078;-48
2022/02/09 06:42:25;;;;;;;39.18;26.87;;;;;;;4.25;65.78;94925.40;1518531;93;21162;-49
2022/02/09 06:44:54;;;;;;;30.85;21.90;;;;;;;4.34;65.51;94929.02;1516565;92;21164;-50
2022/02/09 06:47:26;;;;;;;28.12;18.60;;;;;;;4.35;65.43;94924.55;1527732;92;21227;-50
2022/02/09 06:50:03;;;;;;;22.98;16.12;;;;;;;4.40;65.29;94939.08;1527566;92;21167;-49
2022/02/09 06:52:24;;;;;;;30.97;21.95;;;;;;;4.43;65.13;94947.05;1533850;90;21065;-48
2022/02/09 06:58:44;;;;;;;31.25;23.57;;;;;;;4.59;64.93;94939.87;1528889;92;21126;-49
2022/02/09 07:00:19;;;;;;;27.75;19.80;;;;;;;4.77;64.22;94950.61;1519676;92;21234;-54
2022/02/09 07:02:47;;;;;;;29.87;21.17;;;;;;;4.92;63.50;94959.59;1521773;91;21121;-48
2022/02/09 07:05:14;;;;;;;31.17;23.20;;;;;;;4.99;63.34;94958.14;1533227;91;21042;-52
2022/02/09 07:07:41;;;;;;;42.48;26.97;;;;;;;5.12;62.97;94962.50;1518655;92;21081;-49
2022/02/09 07:10:11;;;;;;;81.37;42.73;;;;;;;5.29;62.44;94960.92;1522499;92;21065;-52
2022/02/09 07:12:38;;;;;;;57.30;33.28;;;;;;;5.45;62.38;94958.39;1524717;91;22325;-50
2022/02/09 07:15:09;;;;;;;94.42;47.10;;;;;;;5.55;61.77;94956.09;1524798;90;21139;-54
2022/02/09 07:17:36;;;;;;;55.63;30.05;;;;;;;5.62;61.65;94962.84;1532309;92;21211;-51
2022/02/09 07:20:13;;;;;;;36.45;23.15;;;;;;;5.71;61.26;94962.52;1534066;91;21151;-54
2022/02/09 07:22:37;;;;;;;43.33;25.62;;;;;;;5.72;61.27;94971.47;1529763;90;21568;-50
2022/02/09 07:25:18;;;;;;;43.35;25.23;;;;;;;5.73;61.22;94956.64;1531244;91;21858;-54
2022/02/09 07:27:51;;;;;;;40.15;24.12;;;;;;;5.77;60.96;94969.06;1526244;90;21083;-50
2022/02/09 07:30:26;;;;;;;32.65;20.90;;;;;;;5.83;60.84;94965.31;1529039;91;21140;-52
2022/02/09 07:32:59;;;;;;;27.73;18.85;;;;;;;5.92;60.58;94962.25;1519502;92;21132;-49
2022/02/09 07:35:25;;;;;;;38.85;27.00;;;;;;;5.98;60.18;94972.13;1550959;89;21143;-48
2022/02/09 07:37:52;;;;;;;49.55;30.12;;;;;;;6.02;60.31;94972.84;1534094;92;21182;-50
2022/02/09 07:40:21;;;;;;;40.25;26.60;;;;;;;6.11;60.14;94971.14;1531953;91;21493;-49
2022/02/09 07:42:54;;;;;;;63.75;40.83;;;;;;;6.20;60.05;94971.99;1520511;92;21127;-56
2022/02/09 07:51:00;;;;;;;83.82;53.30;;;;;;;6.34;58.22;94981.34;1506185;93;24010;-53
2022/02/09 07:55:48;;;;;;;41.98;26.80;;;;;;;6.22;57.55;94981.91;1531409;90;21713;-53
2022/02/09 07:58:14;;;;;;;29.42;20.55;;;;;;;6.04;57.70;94988.22;1529881;92;21173;-54
2022/02/09 08:00:42;;;;;;;33.13;22.82;;;;;;;5.90;57.96;94986.47;1527656;92;21057;-51
2022/02/09 08:03:10;;;;;;;41.05;28.70;;;;;;;5.86;57.90;94986.33;1509892;92;21192;-53
2022/02/09 08:05:37;;;;;;;103.65;69.25;;;;;;;5.83;58.14;94998.83;1519906;92;21600;-52
2022/02/09 08:08:05;;;;;;;40.98;30.12;;;;;;;5.88;58.36;94997.61;1513627;91;21127;-50
2022/02/09 08:29:06;;;;;;;14.30;10.15;;;;;;;5.55;58.19;95010.09;1517110;90;22574;-53
2022/02/09 08:34:04;;;;;;;11.22;8.38;;;;;;;5.47;58.27;95007.28;1516632;92;21135;-53
2022/02/09 08:36:31;;;;;;;12.03;9.38;;;;;;;5.54;57.66;95007.77;1513319;92;21092;-53
2022/02/09 08:38:57;;;;;;;16.67;10.90;;;;;;;5.53;57.60;95005.64;1525213;91;21180;-49
2022/02/09 08:41:24;;;;;;;15.20;9.68;;;;;;;5.56;57.44;95010.85;1546398;90;21050;-55
2022/02/09 08:43:52;;;;;;;56.75;32.67;;;;;;;5.67;57.26;95008.78;1537150;91;21207;-51
2022/02/09 08:46:19;;;;;;;23.02;14.53;;;;;;;5.73;56.88;95016.69;1537090;90;21118;-51
2022/02/09 08:48:47;;;;;;;22.73;17.30;;;;;;;5.72;57.00;95006.95;1533615;91;21177;-48
2022/02/09 08:51:14;;;;;;;18.00;14.83;;;;;;;5.74;56.82;95021.75;1536095;90;21080;-51
2022/02/09 08:53:40;;;;;;;47.38;42.58;;;;;;;5.72;56.69;95016.50;1535619;90;21153;-50
2022/02/09 08:56:07;;;;;;;13.72;11.33;;;;;;;5.72;56.45;95006.38;1538369;90;21112;-52
2022/02/09 08:58:36;;;;;;;16.25;14.55;;;;;;;5.86;56.40;95006.23;1528892;91;21082;-51
2022/02/09 09:01:10;;;;;;;12.25;8.70;;;;;;;6.02;56.18;95008.34;1535874;91;21454;-51
2022/02/09 09:03:58;;;;;;;14.93;12.73;;;;;;;6.09;55.19;95004.13;1528279;91;21599;-52
2022/02/09 09:06:16;;;;;;;12.37;10.10;;;;;;;6.12;54.99;95016.99;1536063;90;21202;-52
2022/02/09 09:08:45;;;;;;;15.38;13.08;;;;;;;6.16;54.69;95008.91;1542553;91;21852;-51
2022/02/09 09:11:26;;;;;;;9.93;8.80;;;;;;;6.22;54.36;95015.47;1515932;92;21219;-55
2022/02/09 10:34:03;;;;;;;13.50;6.65;;;;;;;10.61;43.58;95019.48;1521241;90;21157;-51
2022/02/09 10:36:32;;;;;;;7.40;4.92;;;;;;;10.73;43.49;95019.48;1528270;92;21109;-52
2022/02/09 10:39:09;;;;;;;5.42;4.37;;;;;;;10.77;43.39;95016.79;1514654;92;21115;-55
2022/02/09 10:41:43;;;;;;;8.35;5.33;;;;;;;10.84;42.87;95013.80;1529774;91;21871;-53
2022/02/09 10:44:15;;;;;;;9.40;5.67;;;;;;;11.16;42.20;95024.55;1517833;92;21239;-49
2022/02/09 10:46:52;;;;;;;6.45;4.65;;;;;;;11.48;41.61;95018.74;1519996;91;21605;-51
2022/02/09 10:49:22;;;;;;;7.03;4.67;;;;;;;11.48;40.92;95011.08;1533617;92;21099;-54
2022/02/09 10:52:05;;;;;;;7.03;4.30;;;;;;;11.17;41.37;95010.95;1533137;91;22482;-52
2022/02/09 10:54:23;;;;;;;6.55;5.05;;;;;;;11.14;41.55;95003.58;1526666;91;21459;-51
2022/02/09 10:56:57;;;;;;;6.67;4.42;;;;;;;11.15;41.58;95014.00;1526923;90;21167;-51
2022/02/09 10:59:29;;;;;;;5.28;3.67;;;;;;;11.09;41.14;95024.80;1531898;91;22241;-52
2022/02/09 11:02:00;;;;;;;9.25;4.25;;;;;;;10.83;41.36;95013.64;1521029;91;21143;-52
2022/02/09 11:04:32;;;;;;;7.28;4.83;;;;;;;10.45;42.27;95016.25;1551035;90;21149;-52
2022/02/09 11:07:00;;;;;;;5.55;4.28;;;;;;;10.27;42.88;95023.48;1543901;91;22368;-52
2022/02/09 11:09:27;;;;;;;8.30;5.45;;;;;;;10.37;42.87;95011.41;1521312;92;21072;-51
2022/02/09 11:11:55;;;;;;;5.70;4.53;;;;;;;10.85;42.23;95010.45;1541640;90;21080;-52
2022/02/09 11:14:25;;;;;;;6.72;4.95;;;;;;;11.58;41.01;95002.49;1542815;90;21508;-52
2022/02/09 11:17:01;;;;;;;8.45;4.58;;;;;;;12.18;40.08;95009.34;1548564;91;21204;-52
2022/02/09 11:19:39;;;;;;;13.45;6.22;;;;;;;12.72;39.23;95002.09;1541902;90;21120;-52
2022/02/09 11:22:10;;;;;;;11.88;6.90;;;;;;;13.66;38.07;95013.24;1544485;91;21116;-53
2022/02/09 11:24:43;;;;;;;8.63;4.90;;;;;;;14.38;37.12;95007.68;1541522;91;21657;-50
2022/02/09 11:27:18;;;;;;;8.35;4.25;;;;;;;14.89;35.65;95007.20;1543960;91;22193;-50
2022/02/09 11:29:48;;;;;;;8.25;5.12;;;;;;;15.01;35.22;95006.84;1539738;90;21536;-51
2022/02/09 11:32:29;;;;;;;8.68;3.98;;;;;;;15.54;34.50;94993.94;1541119;91;21161;-52
2022/02/09 11:35:15;;;;;;;8.38;4.72;;;;;;;16.25;33.41;94985.61;1549403;92;21099;-50
2022/02/09 11:40:46;;;;;;;;;;;;;;;17.39;32.11;94994.95;1525227;92;21196;-56
2022/02/09 11:52:15;;;;;;;6.33;4.03;;;;;;;18.84;29.17;94985.85;1527142;92;21116;-51
2022/02/09 11:57:24;;;;;;;7.92;3.95;;;;;;;16.80;30.69;94984.59;1527893;92;21112;-54
2022/02/09 12:08:51;;;;;;;5.28;3.90;;;;;;;13.51;36.03;94991.57;1524388;92;21070;-52
2022/02/09 12:11:38;;;;;;;22.73;20.43;;;;;;;12.96;36.87;94998.22;1485491;93;21006;-54
2022/02/09 12:16:45;;;;;;;34.33;27.42;;;;;;;11.58;39.48;94983.20;1492741;94;21679;-52
2022/02/09 12:19:13;;;;;;;25.85;21.10;;;;;;;11.04;40.85;94992.33;1495172;93;21116;-51
2022/02/09 12:24:29;;;;;;;7.72;5.42;;;;;;;10.42;42.73;94988.84;1487638;92;21033;-57
2022/02/09 12:27:09;;;;;;;35.08;22.98;;;;;;;10.17;43.55;95002.58;1504409;94;21167;-52
2022/02/09 12:29:46;;;;;;;8.93;6.90;;;;;;;9.89;44.02;95004.73;1509849;93;21187;-51
2022/02/09 12:32:23;;;;;;;27.95;23.07;;;;;;;9.67;44.85;95011.45;1524287;92;21157;-53
2022/02/09 12:35:05;;;;;;;77.87;70.50;;;;;;;9.44;45.41;95007.55;1526232;92;21218;-50
2022/02/09 12:37:38;;;;;;;29.42;25.90;;;;;;;9.36;45.92;95015.03;1524830;92;21133;-50
2022/02/09 12:40:17;;;;;;;12.20;9.50;;;;;;;9.32;46.54;95009.66;1529617;92;21523;-51
2022/02/09 12:42:51;;;;;;;8.88;7.95;;;;;;;9.24;47.35;95021.26;1524069;92;21040;-53
2022/02/09 12:45:22;;;;;;;8.85;6.10;;;;;;;9.08;47.79;95026.15;1510499;93;21076;-57
2022/02/09 12:47:56;;;;;;;8.60;7.72;;;;;;;8.86;48.98;95018.89;1511215;93;21273;-50
2022/02/09 12:50:37;;;;;;;7.92;6.42;;;;;;;8.55;50.18;95021.00;1521376;92;21171;-51
2022/02/09 12:53:03;;;;;;;11.53;8.03;;;;;;;8.30;51.25;95017.48;1526037;92;21197;-50
2022/02/09 12:55:33;;;;;;;7.87;6.20;;;;;;;8.14;51.85;95012.52;1506960;93;22066;-51
2022/02/09 12:58:07;;;;;;;29.10;15.72;;;;;;;8.07;51.84;95010.70;1507242;91;21580;-52
2022/02/09 13:00:46;;;;;;;11.95;8.43;;;;;;;8.09;52.27;95023.37;1526914;91;21534;-52
2022/02/09 13:03:22;;;;;;;31.55;15.18;;;;;;;8.13;52.59;95025.45;1530009;92;21120;-51
2022/02/09 13:05:57;;;;;;;15.60;8.43;;;;;;;8.09;53.17;95031.59;1530286;92;21226;-48
2022/02/09 13:08:30;;;;;;;12.90;8.35;;;;;;;8.08;53.25;95019.70;1523270;92;21215;-50
2022/02/09 13:13:42;;;;;;;8.05;5.90;;;;;;;7.99;54.02;95033.19;1539586;90;21163;-51
2022/02/09 13:16:15;;;;;;;8.35;6.87;;;;;;;7.83;54.53;95025.70;1529020;91;21155;-51
2022/02/09 13:53:47;;;;;;;;;;;;;;;;;;;;;
2022/02/09 14:52:15;;;;;;;44.45;26.27;;;;;;;7.63;60.26;95100.80;1527371;91;21087;-50
2022/02/09 14:57:02;;;;;;;28.35;20.25;;;;;;;7.64;60.73;95100.98;1518392;91;21134;-49
2022/02/09 15:00:12;;;;;;;24.65;18.15;;;;;;;7.72;60.71;95104.54;1518359;91;21099;-53
2022/02/09 15:02:00;;;;;;;25.17;19.25;;;;;;;7.77;60.63;95101.92;1522155;92;21171;-49
2022/02/09 15:07:14;;;;;;;27.67;17.62;;;;;;;7.62;60.34;95110.21;1521213;91;21956;-51
2022/02/09 15:09:41;;;;;;;23.50;16.87;;;;;;;7.51;60.76;95107.67;1516057;92;21118;-52
2022/02/09 15:12:26;;;;;;;24.82;18.27;;;;;;;7.46;60.95;95114.22;1513122;91;21127;-49
2022/02/09 15:17:41;;;;;;;144.25;61.48;;;;;;;7.44;61.10;95114.65;1514897;93;21250;-50
2022/02/09 15:22:36;;;;;;;39.73;32.38;;;;;;;7.47;61.24;95121.23;1519546;91;21131;-50
2022/02/09 15:24:59;;;;;;;47.60;25.60;;;;;;;7.44;61.44;95120.12;1522999;92;21044;-50
2022/02/09 15:27:26;;;;;;;82.72;65.42;;;;;;;7.42;61.45;95126.62;1517207;92;21556;-52
2022/02/09 15:29:53;;;;;;;72.95;49.58;;;;;;;7.31;61.64;95128.75;1542086;90;21583;-50
2022/02/09 15:32:32;;;;;;;51.35;34.65;;;;;;;7.13;62.16;95130.25;1516670;90;21970;-48
2022/02/09 15:35:10;;;;;;;41.53;27.02;;;;;;;7.01;63.01;95132.77;1529364;91;21129;-50
2022/02/09 15:37:45;;;;;;;40.48;30.30;;;;;;;7.05;63.22;95138.98;1486180;93;21101;-51
2022/02/09 15:40:25;;;;;;;64.05;53.65;;;;;;;7.09;63.32;95141.81;1530617;92;21808;-49
2022/02/09 15:43:01;;;;;;;72.50;44.08;;;;;;;7.12;63.37;95147.23;1527707;92;21088;-48
2022/02/09 15:56:24;;;;;;;81.37;59.85;;;;;;;6.94;63.68;95147.92;1512717;92;21005;-49
2022/02/09 16:09:36;;;;;;;133.47;113.57;;;;;;;6.38;64.65;95155.55;1524282;90;21161;-53
2022/02/09 16:23:03;;;;;;;98.15;60.00;;;;;;;6.39;65.18;95174.86;1514118;91;21177;-49
2022/02/09 16:25:51;;;;;;;174.87;115.52;;;;;;;6.35;65.03;95175.51;1527487;92;21180;-49
2022/02/09 16:33:55;;;;;;;138.65;81.22;;;;;;;6.01;65.47;95188.39;1541376;90;21156;-51
2022/02/09 16:46:50;;;;;;;122.42;78.80;;;;;;;5.49;66.28;95201.94;1539300;92;21108;-49
2022/02/09 16:49:22;;;;;;;135.40;78.83;;;;;;;5.41;66.60;95208.65;1483584;95;21014;-49
2022/02/09 16:51:53;;;;;;;133.87;81.80;;;;;;;5.39;67.03;95201.46;1541963;90;21180;-49
2022/02/09 16:56:58;;;;;;;162.97;96.57;;;;;;;5.31;67.12;95214.95;1543804;90;21563;-49
2022/02/09 17:21:24;;;;;;;152.30;81.72;;;;;;;4.77;68.83;95208.91;1526702;92;21558;-48
2022/02/09 17:23:54;;;;;;;150.20;91.30;;;;;;;4.67;68.65;95208.97;1528347;92;21523;-48
2022/02/09 17:26:21;;;;;;;149.02;86.02;;;;;;;4.54;69.00;95210.02;1509240;92;21103;-48
2022/02/09 17:29:04;;;;;;;156.37;85.15;;;;;;;4.41;69.15;95210.27;1527337;92;21101;-48
2022/02/09 17:31:36;;;;;;;141.43;81.67;;;;;;;4.28;69.76;95208.39;1510844;92;21177;-49
2022/02/09 17:55:57;;;;;;;189.55;89.95;;;;;;;3.53;71.80;95211.70;1526914;92;21452;-48
2022/02/09 17:58:26;;;;;;;153.93;71.10;;;;;;;3.51;72.12;95220.24;1525411;92;21100;-48
2022/02/09 18:00:50;;;;;;;160.30;73.90;;;;;;;3.50;72.00;95220.65;1528428;92;21085;-50
2022/02/09 18:03:18;;;;;;;147.90;66.85;;;;;;;3.47;71.66;95215.20;1525511;92;21033;-49
2022/02/09 18:05:49;;;;;;;130.37;61.48;;;;;;;3.44;71.74;95218.11;1529115;92;21199;-48
2022/02/09 18:08:38;;;;;;;130.18;65.32;;;;;;;3.41;71.95;95224.94;1527551;92;21084;-49
2022/02/09 18:29:31;;;;;;;203.20;112.80;;;;;;;3.11;72.65;95234.05;1528485;92;21566;-49
2022/02/09 18:37:54;;;;;;;;;;;;;;;;;;;;;
2022/02/09 18:59:26;;;;;;;173.72;94.92;;;;;;;3.35;72.89;95225.11;1522659;92;21625;-49
2022/02/09 19:03:59;;;;;;;177.75;98.27;;;;;;;3.27;72.87;95223.58;1530932;92;21161;-49
2022/02/09 19:06:56;;;;;;;173.43;93.42;;;;;;;3.27;72.68;95222.22;1526187;92;21144;-49
2022/02/09 19:14:31;;;;;;;167.43;81.97;;;;;;;3.18;72.44;95232.68;1527991;92;21142;-49
2022/02/09 19:30:41;;;;;;;126.90;67.90;;;;;;;3.08;73.14;95228.03;1528326;92;21144;-51
2022/02/09 19:33:32;;;;;;;161.32;82.55;;;;;;;3.09;72.53;95233.66;1526733;92;21621;-50
2022/02/09 19:50:10;;;;;;;213.65;121.20;;;;;;;2.60;73.50;95230.30;1512052;92;21134;-49
2022/02/09 19:56:41;;;;;;;105.72;61.55;;;;;;;2.71;72.97;95247.97;1511133;93;21989;-47
2022/02/09 19:59:16;;;;;;;87.17;51.75;;;;;;;2.63;72.88;95238.23;1524727;92;21159;-50
2022/02/09 20:01:40;;;;;;;;;;;;;;;2.57;73.29;95241.13;1528585;92;21054;-50
2022/02/09 20:04:07;;;;;;;142.90;78.42;;;;;;;2.51;72.91;95229.87;1529567;92;20179;-51
2022/02/09 20:06:35;;;;;;;114.97;64.72;;;;;;;2.39;73.13;95226.73;1527503;92;21570;-50
2022/02/09 20:09:03;;;;;;;143.00;86.00;;;;;;;2.39;73.70;95218.59;1511517;92;21115;-50
2022/02/09 20:11:30;;;;;;;92.12;57.80;;;;;;;2.46;73.64;95228.09;1526727;92;21085;-49
2022/02/09 20:13:57;;;;;;;84.47;54.77;;;;;;;2.33;73.15;95228.27;1515897;92;21099;-50
2022/02/09 20:16:24;;;;;;;114.30;73.72;;;;;;;2.20;73.52;95221.06;1529230;92;21044;-50
2022/02/09 20:18:52;;;;;;;87.75;49.70;;;;;;;2.15;73.64;95222.77;1527927;92;21064;-52
2022/02/09 20:21:23;;;;;;;168.13;96.82;;;;;;;2.06;73.50;95225.06;1509021;93;21798;-49
2022/02/09 20:23:50;;;;;;;229.05;128.65;;;;;;;1.93;73.54;95220.36;1529569;92;21613;-49
2022/02/09 20:26:18;;;;;;;235.38;129.38;;;;;;;1.87;74.24;95228.08;1529597;92;21292;-50
2022/02/09 20:28:47;;;;;;;279.85;148.62;;;;;;;1.94;74.39;95236.23;1513475;92;21589;-49
2022/02/09 20:31:19;;;;;;;335.15;171.43;;;;;;;2.03;74.31;95233.17;1527947;92;21076;-48
2022/02/09 20:33:48;;;;;;;332.50;176.95;;;;;;;2.03;73.90;95228.55;1527663;92;21432;-50
2022/02/09 20:36:13;;;;;;;320.40;167.22;;;;;;;2.05;74.18;95226.79;1512170;93;21037;-48
2022/02/09 20:38:41;;;;;;;292.20;153.42;;;;;;;2.11;74.04;95228.00;1527131;92;22648;-51
2022/02/09 20:41:09;;;;;;;294.55;162.97;;;;;;;2.18;73.96;95225.30;1527432;92;21636;-49
2022/02/09 20:43:43;;;;;;;279.90;145.72;;;;;;;2.22;74.00;95220.09;1526188;92;21084;-49
2022/02/09 20:46:07;;;;;;;287.50;150.82;;;;;;;2.28;73.73;95213.69;1529878;92;21187;-48
2022/02/09 20:48:34;;;;;;;295.37;158.97;;;;;;;2.31;73.31;95223.21;1527150;92;21089;-48
2022/02/09 20:51:01;;;;;;;289.50;153.00;;;;;;;2.34;73.25;95220.33;1526890;92;21098;-50
2022/02/09 20:53:28;;;;;;;279.38;154.15;;;;;;;2.35;73.00;95227.30;1527617;92;21084;-49
2022/02/09 20:55:56;;;;;;;265.90;146.30;;;;;;;2.35;72.90;95212.38;1525844;92;21853;-50
2022/02/09 20:58:24;;;;;;;263.43;136.72;;;;;;;2.34;72.87;95224.39;1528802;92;21161;-50
2022/02/09 21:16:38;;;;;;;271.37;134.75;;;;;;;2.19;72.73;95218.14;1526170;92;21152;-50
2022/02/09 21:49:28;;;;;;;204.28;106.90;;;;;;;1.91;72.51;95214.51;1527481;92;21133;-47
2022/02/09 21:54:15;;;;;;;179.55;91.53;;;;;;;1.85;72.84;95214.69;1528094;92;21183;-48
2022/02/09 22:06:08;;;;;;;126.33;63.65;;;;;;;2.03;72.72;95213.63;1528386;92;21048;-48
2022/02/09 22:21:16;;;;;;;157.05;76.55;;;;;;;1.94;72.63;95214.53;1529346;92;21043;-48
2022/02/09 22:26:32;;;;;;;121.07;61.77;;;;;;;1.94;72.49;95206.39;1488660;92;21591;-48
2022/02/09 22:28:43;;;;;;;111.95;57.65;;;;;;;1.97;72.81;95207.58;1511649;93;21674;-48
2022/02/09 22:31:53;;;;;;;120.20;60.15;;;;;;;2.02;72.80;95203.14;1506393;93;22210;-47
2022/02/09 22:55:38;;;;;;;161.82;83.07;;;;;;;1.82;72.20;95189.68;1528219;92;21309;-48
2022/02/09 22:58:04;;;;;;;153.80;79.17;;;;;;;1.90;72.17;95188.55;1511273;92;21196;-48
2022/02/09 23:01:00;;;;;;;146.00;77.62;;;;;;;1.98;72.15;95190.14;1503749;92;21542;-48
2022/02/09 23:03:44;;;;;;;165.88;83.42;;;;;;;1.99;72.12;95187.03;1525331;92;21042;-48
2022/02/09 23:06:15;;;;;;;148.00;78.75;;;;;;;2.15;72.70;95189.44;1526593;92;20979;-48
2022/02/09 23:13:59;;;;;;;151.07;77.85;;;;;;;2.22;71.19;95188.09;1512526;93;21124;-48
2022/02/09 23:16:28;;;;;;;153.60;79.17;;;;;;;2.13;71.04;95183.61;1528225;92;21891;-47
2022/02/09 23:27:49;;;;;;;148.22;78.33;;;;;;;2.20;72.69;95174.13;1526956;92;21082;-48
2022/02/09 23:55:16;;;;;;;240.75;107.75;;;;;;;2.19;71.94;95152.23;1511182;92;21424;-48
